sensor_id;sensor_type;location;lat;lon;timestamp;P1;durP1;ratioP1;P2;durP2;ratioP2
22160;SDS011;49035;48.812;11.762;2023-05-10T00:02:24;6.97;;;5.43;;
22160;SDS011;49035;48.812;11.762;2023-05-10T00:04:50;7.47;;;5.80;;
22160;SDS011;49035;48.812;11.762;2023-05-10T00:07:16;7.93;;;6.22;;
22160;SDS011;49035;48.812;11.762;2023-05-10T00:09:44;7.80;;;6.10;;
22160;SDS011;49035;48.812;11.762;2023-05-10T00:12:11;8.27;;;6.35;;
22160;SDS011;49035;48.812;11.762;2023-05-10T00:14:37;9.20;;;6.32;;
22160;SDS011;49035;48.812;11.762;2023-05-10T00:17:02;10.18;;;7.57;;
22160;SDS011;49035;48.812;11.762;2023-05-10T00:19:28;14.90;;;8.30;;
22160;SDS011;49035;48.812;11.762;2023-05-10T00:21:53;14.90;;;9.00;;
22160;SDS011;49035;48.812;11.762;2023-05-10T00:24:19;12.52;;;8.77;;
22160;SDS011;49035;48.812;11.762;2023-05-10T00:26:44;11.32;;;8.90;;
22160;SDS011;49035;48.812;11.762;2023-05-10T00:29:10;12.63;;;9.15;;
22160;SDS011;49035;48.812;11.762;2023-05-10T00:31:36;13.05;;;10.15;;
22160;SDS011;49035;48.812;11.762;2023-05-10T00:34:01;14.48;;;10.02;;
22160;SDS011;49035;48.812;11.762;2023-05-10T00:36:27;16.25;;;11.02;;
22160;SDS011;49035;48.812;11.762;2023-05-10T00:38:52;15.75;;;11.30;;
22160;SDS011;49035;48.812;11.762;2023-05-10T00:41:18;15.93;;;11.35;;
22160;SDS011;49035;48.812;11.762;2023-05-10T00:43:43;18.75;;;12.55;;
22160;SDS011;49035;48.812;11.762;2023-05-10T00:46:09;19.73;;;13.50;;
22160;SDS011;49035;48.812;11.762;2023-05-10T00:48:35;21.25;;;14.48;;
22160;SDS011;49035;48.812;11.762;2023-05-10T00:51:01;23.08;;;16.02;;
22160;SDS011;49035;48.812;11.762;2023-05-10T00:53:27;21.35;;;14.48;;
22160;SDS011;49035;48.812;11.762;2023-05-10T00:55:53;22.23;;;14.57;;
22160;SDS011;49035;48.812;11.762;2023-05-10T00:58:19;24.90;;;14.63;;
22160;SDS011;49035;48.812;11.762;2023-05-10T01:00:45;23.33;;;14.68;;
22160;SDS011;49035;48.812;11.762;2023-05-10T01:03:12;21.92;;;14.38;;
22160;SDS011;49035;48.812;11.762;2023-05-10T01:05:39;18.08;;;13.20;;
22160;SDS011;49035;48.812;11.762;2023-05-10T01:08:04;17.88;;;10.95;;
22160;SDS011;49035;48.812;11.762;2023-05-10T01:10:31;15.43;;;9.60;;
22160;SDS011;49035;48.812;11.762;2023-05-10T01:12:57;11.82;;;8.02;;
22160;SDS011;49035;48.812;11.762;2023-05-10T01:15:24;11.82;;;7.10;;
22160;SDS011;49035;48.812;11.762;2023-05-10T01:17:50;8.63;;;6.40;;
22160;SDS011;49035;48.812;11.762;2023-05-10T01:20:17;10.00;;;5.97;;
22160;SDS011;49035;48.812;11.762;2023-05-10T01:28:25;8.10;;;5.55;;
22160;SDS011;49035;48.812;11.762;2023-05-10T01:34:04;9.18;;;5.13;;
22160;SDS011;49035;48.812;11.762;2023-05-10T01:42:03;9.27;;;5.75;;
22160;SDS011;49035;48.812;11.762;2023-05-10T01:44:33;8.25;;;4.78;;
22160;SDS011;49035;48.812;11.762;2023-05-10T01:47:06;5.85;;;4.45;;
22160;SDS011;49035;48.812;11.762;2023-05-10T01:49:37;6.00;;;4.72;;
22160;SDS011;49035;48.812;11.762;2023-05-10T01:52:08;6.78;;;5.00;;
22160;SDS011;49035;48.812;11.762;2023-05-10T01:54:38;8.02;;;4.95;;
22160;SDS011;49035;48.812;11.762;2023-05-10T01:57:13;5.40;;;4.28;;
22160;SDS011;49035;48.812;11.762;2023-05-10T01:59:41;5.20;;;4.10;;
22160;SDS011;49035;48.812;11.762;2023-05-10T02:02:11;6.15;;;4.97;;
22160;SDS011;49035;48.812;11.762;2023-05-10T02:04:39;6.82;;;4.75;;
22160;SDS011;49035;48.812;11.762;2023-05-10T02:07:07;5.32;;;4.03;;
22160;SDS011;49035;48.812;11.762;2023-05-10T02:09:34;7.82;;;4.63;;
22160;SDS011;49035;48.812;11.762;2023-05-10T02:12:02;7.45;;;4.60;;
22160;SDS011;49035;48.812;11.762;2023-05-10T02:14:29;7.28;;;4.00;;
22160;SDS011;49035;48.812;11.762;2023-05-10T02:16:57;7.40;;;4.10;;
22160;SDS011;49035;48.812;11.762;2023-05-10T02:19:25;4.53;;;3.72;;
22160;SDS011;49035;48.812;11.762;2023-05-10T02:21:52;6.47;;;3.85;;
22160;SDS011;49035;48.812;11.762;2023-05-10T02:24:20;3.92;;;3.50;;
22160;SDS011;49035;48.812;11.762;2023-05-10T02:26:47;5.60;;;3.38;;
22160;SDS011;49035;48.812;11.762;2023-05-10T02:29:14;3.63;;;3.20;;
22160;SDS011;49035;48.812;11.762;2023-05-10T02:31:41;6.30;;;3.58;;
22160;SDS011;49035;48.812;11.762;2023-05-10T02:34:08;7.65;;;3.60;;
22160;SDS011;49035;48.812;11.762;2023-05-10T02:36:36;5.38;;;3.58;;
22160;SDS011;49035;48.812;11.762;2023-05-10T02:39:03;3.60;;;3.13;;
22160;SDS011;49035;48.812;11.762;2023-05-10T02:41:34;4.45;;;3.50;;
22160;SDS011;49035;48.812;11.762;2023-05-10T02:44:02;4.45;;;3.72;;
22160;SDS011;49035;48.812;11.762;2023-05-10T02:46:28;5.28;;;3.70;;
22160;SDS011;49035;48.812;11.762;2023-05-10T02:48:55;6.50;;;4.00;;
22160;SDS011;49035;48.812;11.762;2023-05-10T02:51:20;4.07;;;3.67;;
22160;SDS011;49035;48.812;11.762;2023-05-10T02:53:53;4.05;;;3.40;;
22160;SDS011;49035;48.812;11.762;2023-05-10T02:56:23;3.58;;;3.28;;
22160;SDS011;49035;48.812;11.762;2023-05-10T02:58:52;4.72;;;3.88;;
22160;SDS011;49035;48.812;11.762;2023-05-10T03:01:18;4.68;;;4.03;;
22160;SDS011;49035;48.812;11.762;2023-05-10T03:03:43;4.32;;;3.60;;
22160;SDS011;49035;48.812;11.762;2023-05-10T03:06:09;4.30;;;3.38;;
22160;SDS011;49035;48.812;11.762;2023-05-10T03:08:35;5.55;;;3.85;;
22160;SDS011;49035;48.812;11.762;2023-05-10T03:14:16;4.80;;;3.97;;
22160;SDS011;49035;48.812;11.762;2023-05-10T03:16:46;5.07;;;4.57;;
22160;SDS011;49035;48.812;11.762;2023-05-10T03:19:18;5.75;;;4.28;;
22160;SDS011;49035;48.812;11.762;2023-05-10T03:21:55;5.13;;;4.60;;
22160;SDS011;49035;48.812;11.762;2023-05-10T03:24:24;5.38;;;3.97;;
22160;SDS011;49035;48.812;11.762;2023-05-10T03:26:53;5.55;;;3.95;;
22160;SDS011;49035;48.812;11.762;2023-05-10T03:29:22;7.40;;;4.22;;
22160;SDS011;49035;48.812;11.762;2023-05-10T03:31:50;4.35;;;3.95;;
22160;SDS011;49035;48.812;11.762;2023-05-10T03:34:16;5.03;;;4.50;;
22160;SDS011;49035;48.812;11.762;2023-05-10T03:36:47;6.10;;;4.68;;
22160;SDS011;49035;48.812;11.762;2023-05-10T03:39:13;7.35;;;4.38;;
22160;SDS011;49035;48.812;11.762;2023-05-10T03:41:39;6.22;;;4.50;;
22160;SDS011;49035;48.812;11.762;2023-05-10T03:44:04;6.20;;;5.00;;
22160;SDS011;49035;48.812;11.762;2023-05-10T03:46:30;6.75;;;5.03;;
22160;SDS011;49035;48.812;11.762;2023-05-10T03:48:56;4.95;;;4.32;;
22160;SDS011;49035;48.812;11.762;2023-05-10T03:51:21;6.40;;;5.05;;
22160;SDS011;49035;48.812;11.762;2023-05-10T03:53:47;6.93;;;5.78;;
22160;SDS011;49035;48.812;11.762;2023-05-10T03:56:12;6.25;;;4.43;;
22160;SDS011;49035;48.812;11.762;2023-05-10T03:58:38;6.85;;;4.55;;
22160;SDS011;49035;48.812;11.762;2023-05-10T04:01:03;6.43;;;4.80;;
22160;SDS011;49035;48.812;11.762;2023-05-10T04:03:29;5.95;;;4.80;;
22160;SDS011;49035;48.812;11.762;2023-05-10T04:05:59;5.72;;;4.13;;
22160;SDS011;49035;48.812;11.762;2023-05-10T04:08:25;6.07;;;3.42;;
22160;SDS011;49035;48.812;11.762;2023-05-10T04:10:51;7.57;;;3.07;;
22160;SDS011;49035;48.812;11.762;2023-05-10T04:13:17;6.22;;;4.10;;
22160;SDS011;49035;48.812;11.762;2023-05-10T04:15:42;7.18;;;4.40;;
22160;SDS011;49035;48.812;11.762;2023-05-10T04:18:08;5.68;;;4.55;;
22160;SDS011;49035;48.812;11.762;2023-05-10T04:20:35;7.90;;;5.30;;
22160;SDS011;49035;48.812;11.762;2023-05-10T04:23:00;9.70;;;5.78;;
22160;SDS011;49035;48.812;11.762;2023-05-10T04:25:26;6.45;;;5.25;;
22160;SDS011;49035;48.812;11.762;2023-05-10T04:27:52;6.75;;;5.40;;
22160;SDS011;49035;48.812;11.762;2023-05-10T04:30:17;8.88;;;6.13;;
22160;SDS011;49035;48.812;11.762;2023-05-10T04:32:43;7.00;;;5.68;;
22160;SDS011;49035;48.812;11.762;2023-05-10T04:35:08;6.40;;;5.68;;
22160;SDS011;49035;48.812;11.762;2023-05-10T04:37:35;5.10;;;4.22;;
22160;SDS011;49035;48.812;11.762;2023-05-10T04:40:01;6.93;;;4.00;;
22160;SDS011;49035;48.812;11.762;2023-05-10T04:42:28;5.05;;;3.75;;
22160;SDS011;49035;48.812;11.762;2023-05-10T04:44:53;4.25;;;3.40;;
22160;SDS011;49035;48.812;11.762;2023-05-10T04:47:19;4.68;;;2.88;;
22160;SDS011;49035;48.812;11.762;2023-05-10T04:49:45;2.97;;;2.58;;
22160;SDS011;49035;48.812;11.762;2023-05-10T04:52:10;3.92;;;2.50;;
22160;SDS011;49035;48.812;11.762;2023-05-10T04:54:36;3.80;;;2.47;;
22160;SDS011;49035;48.812;11.762;2023-05-10T04:57:02;3.30;;;2.40;;
22160;SDS011;49035;48.812;11.762;2023-05-10T04:59:27;4.65;;;2.40;;
22160;SDS011;49035;48.812;11.762;2023-05-10T05:01:53;2.45;;;2.25;;
22160;SDS011;49035;48.812;11.762;2023-05-10T05:04:19;3.70;;;2.10;;
22160;SDS011;49035;48.812;11.762;2023-05-10T05:06:44;3.92;;;1.90;;
22160;SDS011;49035;48.812;11.762;2023-05-10T05:09:10;2.47;;;1.83;;
22160;SDS011;49035;48.812;11.762;2023-05-10T05:11:35;2.17;;;1.73;;
22160;SDS011;49035;48.812;11.762;2023-05-10T05:14:01;2.35;;;1.90;;
22160;SDS011;49035;48.812;11.762;2023-05-10T05:16:27;3.97;;;2.25;;
22160;SDS011;49035;48.812;11.762;2023-05-10T05:18:55;3.50;;;1.75;;
22160;SDS011;49035;48.812;11.762;2023-05-10T05:21:21;4.38;;;1.83;;
22160;SDS011;49035;48.812;11.762;2023-05-10T05:23:47;2.00;;;1.80;;
22160;SDS011;49035;48.812;11.762;2023-05-10T05:26:12;2.10;;;1.70;;
22160;SDS011;49035;48.812;11.762;2023-05-10T05:28:38;3.47;;;1.30;;
22160;SDS011;49035;48.812;11.762;2023-05-10T05:31:04;1.55;;;1.33;;
22160;SDS011;49035;48.812;11.762;2023-05-10T05:33:30;1.63;;;1.33;;
22160;SDS011;49035;48.812;11.762;2023-05-10T05:35:56;2.50;;;1.00;;
22160;SDS011;49035;48.812;11.762;2023-05-10T05:38:22;1.55;;;0.85;;
22160;SDS011;49035;48.812;11.762;2023-05-10T05:40:48;1.10;;;0.93;;
22160;SDS011;49035;48.812;11.762;2023-05-10T05:43:14;1.10;;;0.95;;
22160;SDS011;49035;48.812;11.762;2023-05-10T05:45:39;1.25;;;1.15;;
22160;SDS011;49035;48.812;11.762;2023-05-10T05:48:05;1.10;;;1.00;;
22160;SDS011;49035;48.812;11.762;2023-05-10T05:50:31;0.95;;;0.95;;
22160;SDS011;49035;48.812;11.762;2023-05-10T05:52:56;0.77;;;0.77;;
22160;SDS011;49035;48.812;11.762;2023-05-10T05:55:22;1.20;;;1.10;;
22160;SDS011;49035;48.812;11.762;2023-05-10T05:57:49;1.95;;;1.30;;
22160;SDS011;49035;48.812;11.762;2023-05-10T06:00:14;1.75;;;1.20;;
22160;SDS011;49035;48.812;11.762;2023-05-10T06:02:41;4.70;;;1.38;;
22160;SDS011;49035;48.812;11.762;2023-05-10T06:05:06;1.83;;;1.20;;
22160;SDS011;49035;48.812;11.762;2023-05-10T06:07:32;1.38;;;1.27;;
22160;SDS011;49035;48.812;11.762;2023-05-10T06:09:58;1.40;;;1.15;;
22160;SDS011;49035;48.812;11.762;2023-05-10T06:12:23;1.98;;;1.20;;
22160;SDS011;49035;48.812;11.762;2023-05-10T06:14:49;1.10;;;1.00;;
22160;SDS011;49035;48.812;11.762;2023-05-10T06:17:15;0.98;;;0.98;;
22160;SDS011;49035;48.812;11.762;2023-05-10T06:19:40;1.23;;;1.15;;
22160;SDS011;49035;48.812;11.762;2023-05-10T06:22:06;2.70;;;1.10;;
22160;SDS011;49035;48.812;11.762;2023-05-10T06:24:31;1.40;;;1.30;;
22160;SDS011;49035;48.812;11.762;2023-05-10T06:26:57;5.13;;;1.27;;
22160;SDS011;49035;48.812;11.762;2023-05-10T06:29:25;1.45;;;1.02;;
22160;SDS011;49035;48.812;11.762;2023-05-10T06:31:50;3.58;;;1.15;;
22160;SDS011;49035;48.812;11.762;2023-05-10T06:34:16;1.77;;;1.13;;
22160;SDS011;49035;48.812;11.762;2023-05-10T06:36:42;1.40;;;1.30;;
22160;SDS011;49035;48.812;11.762;2023-05-10T06:39:07;5.75;;;2.00;;
22160;SDS011;49035;48.812;11.762;2023-05-10T06:41:33;1.67;;;1.58;;
22160;SDS011;49035;48.812;11.762;2023-05-10T06:43:58;1.63;;;1.40;;
22160;SDS011;49035;48.812;11.762;2023-05-10T06:46:24;1.23;;;1.17;;
22160;SDS011;49035;48.812;11.762;2023-05-10T06:48:49;2.35;;;1.20;;
22160;SDS011;49035;48.812;11.762;2023-05-10T06:51:15;1.25;;;0.90;;
22160;SDS011;49035;48.812;11.762;2023-05-10T06:53:41;1.70;;;1.00;;
22160;SDS011;49035;48.812;11.762;2023-05-10T06:56:06;1.13;;;1.02;;
22160;SDS011;49035;48.812;11.762;2023-05-10T06:58:32;0.90;;;0.90;;
22160;SDS011;49035;48.812;11.762;2023-05-10T07:01:04;1.50;;;1.40;;
22160;SDS011;49035;48.812;11.762;2023-05-10T07:03:31;1.58;;;1.48;;
22160;SDS011;49035;48.812;11.762;2023-05-10T07:06:03;1.50;;;1.40;;
22160;SDS011;49035;48.812;11.762;2023-05-10T07:08:33;1.27;;;1.17;;
22160;SDS011;49035;48.812;11.762;2023-05-10T07:10:59;1.42;;;1.33;;
22160;SDS011;49035;48.812;11.762;2023-05-10T07:13:26;1.40;;;1.30;;
22160;SDS011;49035;48.812;11.762;2023-05-10T07:15:51;2.92;;;1.58;;
22160;SDS011;49035;48.812;11.762;2023-05-10T07:18:17;3.00;;;1.40;;
22160;SDS011;49035;48.812;11.762;2023-05-10T07:20:42;3.65;;;1.70;;
22160;SDS011;49035;48.812;11.762;2023-05-10T07:23:08;1.85;;;1.40;;
22160;SDS011;49035;48.812;11.762;2023-05-10T07:25:33;1.60;;;1.50;;
22160;SDS011;49035;48.812;11.762;2023-05-10T07:27:59;1.25;;;1.20;;
22160;SDS011;49035;48.812;11.762;2023-05-10T07:30:24;1.40;;;1.05;;
22160;SDS011;49035;48.812;11.762;2023-05-10T07:32:50;2.92;;;1.08;;
22160;SDS011;49035;48.812;11.762;2023-05-10T07:35:16;0.90;;;0.90;;
22160;SDS011;49035;48.812;11.762;2023-05-10T07:37:41;0.80;;;0.80;;
22160;SDS011;49035;48.812;11.762;2023-05-10T07:40:07;1.42;;;1.00;;
22160;SDS011;49035;48.812;11.762;2023-05-10T07:42:33;1.75;;;0.82;;
22160;SDS011;49035;48.812;11.762;2023-05-10T07:44:59;1.42;;;0.82;;
22160;SDS011;49035;48.812;11.762;2023-05-10T07:47:24;2.15;;;1.00;;
22160;SDS011;49035;48.812;11.762;2023-05-10T07:49:50;0.80;;;0.80;;
22160;SDS011;49035;48.812;11.762;2023-05-10T07:52:16;0.98;;;0.88;;
22160;SDS011;49035;48.812;11.762;2023-05-10T07:54:42;3.40;;;0.88;;
22160;SDS011;49035;48.812;11.762;2023-05-10T07:57:07;2.67;;;0.90;;
22160;SDS011;49035;48.812;11.762;2023-05-10T07:59:33;1.48;;;0.73;;
22160;SDS011;49035;48.812;11.762;2023-05-10T08:01:59;0.88;;;0.63;;
22160;SDS011;49035;48.812;11.762;2023-05-10T08:04:24;0.77;;;0.68;;
22160;SDS011;49035;48.812;11.762;2023-05-10T08:06:50;0.68;;;0.68;;
22160;SDS011;49035;48.812;11.762;2023-05-10T08:09:16;0.60;;;0.60;;
22160;SDS011;49035;48.812;11.762;2023-05-10T08:11:42;0.65;;;0.65;;
22160;SDS011;49035;48.812;11.762;2023-05-10T08:14:08;2.95;;;0.77;;
22160;SDS011;49035;48.812;11.762;2023-05-10T08:16:33;0.88;;;0.70;;
22160;SDS011;49035;48.812;11.762;2023-05-10T08:18:59;0.88;;;0.65;;
22160;SDS011;49035;48.812;11.762;2023-05-10T08:21:25;1.00;;;0.90;;
22160;SDS011;49035;48.812;11.762;2023-05-10T08:23:51;0.90;;;0.88;;
22160;SDS011;49035;48.812;11.762;2023-05-10T08:26:16;0.80;;;0.80;;
22160;SDS011;49035;48.812;11.762;2023-05-10T08:28:42;1.45;;;0.57;;
22160;SDS011;49035;48.812;11.762;2023-05-10T08:31:07;0.60;;;0.60;;
22160;SDS011;49035;48.812;11.762;2023-05-10T08:33:33;4.57;;;0.70;;
22160;SDS011;49035;48.812;11.762;2023-05-10T08:35:59;1.30;;;0.50;;
22160;SDS011;49035;48.812;11.762;2023-05-10T08:38:24;1.05;;;0.50;;
22160;SDS011;49035;48.812;11.762;2023-05-10T08:40:50;1.13;;;0.60;;
22160;SDS011;49035;48.812;11.762;2023-05-10T08:43:21;0.85;;;0.50;;
22160;SDS011;49035;48.812;11.762;2023-05-10T08:45:52;3.00;;;0.60;;
22160;SDS011;49035;48.812;11.762;2023-05-10T08:48:19;1.15;;;0.50;;
22160;SDS011;49035;48.812;11.762;2023-05-10T08:50:47;0.60;;;0.60;;
22160;SDS011;49035;48.812;11.762;2023-05-10T08:53:15;0.73;;;0.60;;
22160;SDS011;49035;48.812;11.762;2023-05-10T08:55:41;0.60;;;0.50;;
22160;SDS011;49035;48.812;11.762;2023-05-10T08:58:08;0.50;;;0.50;;
22160;SDS011;49035;48.812;11.762;2023-05-10T09:00:34;3.03;;;0.60;;
22160;SDS011;49035;48.812;11.762;2023-05-10T09:03:02;0.60;;;0.60;;
22160;SDS011;49035;48.812;11.762;2023-05-10T09:05:29;1.10;;;0.60;;
22160;SDS011;49035;48.812;11.762;2023-05-10T09:07:54;0.57;;;0.57;;
22160;SDS011;49035;48.812;11.762;2023-05-10T09:10:20;2.13;;;0.60;;
22160;SDS011;49035;48.812;11.762;2023-05-10T09:12:48;0.70;;;0.70;;
22160;SDS011;49035;48.812;11.762;2023-05-10T09:15:16;0.60;;;0.60;;
22160;SDS011;49035;48.812;11.762;2023-05-10T09:17:44;1.35;;;0.60;;
22160;SDS011;49035;48.812;11.762;2023-05-10T09:20:10;1.88;;;0.52;;
22160;SDS011;49035;48.812;11.762;2023-05-10T09:22:36;2.60;;;0.75;;
22160;SDS011;49035;48.812;11.762;2023-05-10T09:25:09;4.13;;;0.70;;
22160;SDS011;49035;48.812;11.762;2023-05-10T09:27:36;0.65;;;0.65;;
22160;SDS011;49035;48.812;11.762;2023-05-10T09:30:04;0.77;;;0.77;;
22160;SDS011;49035;48.812;11.762;2023-05-10T09:32:44;0.82;;;0.75;;
22160;SDS011;49035;48.812;11.762;2023-05-10T09:37:39;0.52;;;0.52;;
22160;SDS011;49035;48.812;11.762;2023-05-10T09:40:10;0.63;;;0.63;;
22160;SDS011;49035;48.812;11.762;2023-05-10T09:42:38;0.50;;;0.50;;
22160;SDS011;49035;48.812;11.762;2023-05-10T09:45:04;0.40;;;0.40;;
22160;SDS011;49035;48.812;11.762;2023-05-10T09:47:33;2.72;;;0.57;;
22160;SDS011;49035;48.812;11.762;2023-05-10T09:50:01;0.52;;;0.52;;
22160;SDS011;49035;48.812;11.762;2023-05-10T09:52:31;1.23;;;0.70;;
22160;SDS011;49035;48.812;11.762;2023-05-10T09:55:16;0.45;;;0.45;;
22160;SDS011;49035;48.812;11.762;2023-05-10T09:58:02;1.45;;;0.80;;
22160;SDS011;49035;48.812;11.762;2023-05-10T10:00:27;0.50;;;0.50;;
22160;SDS011;49035;48.812;11.762;2023-05-10T10:02:59;0.65;;;0.50;;
22160;SDS011;49035;48.812;11.762;2023-05-10T10:05:29;2.80;;;0.70;;
22160;SDS011;49035;48.812;11.762;2023-05-10T10:07:56;0.82;;;0.60;;
22160;SDS011;49035;48.812;11.762;2023-05-10T10:10:23;0.80;;;0.80;;
22160;SDS011;49035;48.812;11.762;2023-05-10T10:12:50;0.63;;;0.52;;
22160;SDS011;49035;48.812;11.762;2023-05-10T10:15:17;1.55;;;0.60;;
22160;SDS011;49035;48.812;11.762;2023-05-10T10:17:43;2.35;;;0.80;;
22160;SDS011;49035;48.812;11.762;2023-05-10T10:20:09;0.60;;;0.60;;
22160;SDS011;49035;48.812;11.762;2023-05-10T10:22:36;1.00;;;0.60;;
22160;SDS011;49035;48.812;11.762;2023-05-10T10:25:02;1.67;;;0.80;;
22160;SDS011;49035;48.812;11.762;2023-05-10T10:36:05;0.82;;;0.73;;
22160;SDS011;49035;48.812;11.762;2023-05-10T10:38:54;2.00;;;0.75;;
22160;SDS011;49035;48.812;11.762;2023-05-10T10:54:52;1.75;;;0.80;;
22160;SDS011;49035;48.812;11.762;2023-05-10T10:57:23;1.92;;;0.90;;
22160;SDS011;49035;48.812;11.762;2023-05-10T10:59:51;0.88;;;0.80;;
22160;SDS011;49035;48.812;11.762;2023-05-10T11:02:36;1.98;;;0.80;;
22160;SDS011;49035;48.812;11.762;2023-05-10T11:05:23;0.60;;;0.60;;
22160;SDS011;49035;48.812;11.762;2023-05-10T11:07:58;1.40;;;0.88;;
22160;SDS011;49035;48.812;11.762;2023-05-10T11:10:25;2.45;;;0.90;;
22160;SDS011;49035;48.812;11.762;2023-05-10T11:12:52;0.60;;;0.60;;
22160;SDS011;49035;48.812;11.762;2023-05-10T11:15:19;0.75;;;0.60;;
22160;SDS011;49035;48.812;11.762;2023-05-10T11:17:45;1.77;;;0.90;;
22160;SDS011;49035;48.812;11.762;2023-05-10T11:20:16;0.60;;;0.60;;
22160;SDS011;49035;48.812;11.762;2023-05-10T11:22:49;1.83;;;0.88;;
22160;SDS011;49035;48.812;11.762;2023-05-10T11:25:19;1.80;;;0.90;;
22160;SDS011;49035;48.812;11.762;2023-05-10T11:27:46;1.98;;;0.70;;
22160;SDS011;49035;48.812;11.762;2023-05-10T11:30:13;2.08;;;0.80;;
22160;SDS011;49035;48.812;11.762;2023-05-10T11:32:40;1.13;;;0.65;;
22160;SDS011;49035;48.812;11.762;2023-05-10T11:35:09;1.10;;;0.65;;
22160;SDS011;49035;48.812;11.762;2023-05-10T11:37:36;0.70;;;0.70;;
22160;SDS011;49035;48.812;11.762;2023-05-10T11:40:06;2.55;;;0.77;;
22160;SDS011;49035;48.812;11.762;2023-05-10T11:42:38;0.80;;;0.70;;
22160;SDS011;49035;48.812;11.762;2023-05-10T11:45:04;1.00;;;0.70;;
22160;SDS011;49035;48.812;11.762;2023-05-10T11:47:30;0.82;;;0.63;;
22160;SDS011;49035;48.812;11.762;2023-05-10T11:49:56;1.88;;;0.88;;
22160;SDS011;49035;48.812;11.762;2023-05-10T11:52:23;4.53;;;0.60;;
22160;SDS011;49035;48.812;11.762;2023-05-10T11:54:52;1.13;;;0.68;;
22160;SDS011;49035;48.812;11.762;2023-05-10T11:57:19;3.47;;;0.70;;
22160;SDS011;49035;48.812;11.762;2023-05-10T11:59:46;3.38;;;0.80;;
22160;SDS011;49035;48.812;11.762;2023-05-10T12:02:18;0.70;;;0.70;;
22160;SDS011;49035;48.812;11.762;2023-05-10T12:04:44;1.55;;;0.95;;
22160;SDS011;49035;48.812;11.762;2023-05-10T12:07:09;1.73;;;0.93;;
22160;SDS011;49035;48.812;11.762;2023-05-10T12:09:35;2.05;;;0.93;;
22160;SDS011;49035;48.812;11.762;2023-05-10T12:12:01;0.93;;;0.80;;
22160;SDS011;49035;48.812;11.762;2023-05-10T12:14:27;2.03;;;1.00;;
22160;SDS011;49035;48.812;11.762;2023-05-10T12:16:58;1.75;;;1.10;;
22160;SDS011;49035;48.812;11.762;2023-05-10T12:19:23;1.55;;;1.20;;
22160;SDS011;49035;48.812;11.762;2023-05-10T12:21:49;5.07;;;0.90;;
22160;SDS011;49035;48.812;11.762;2023-05-10T12:24:14;1.55;;;1.02;;
22160;SDS011;49035;48.812;11.762;2023-05-10T12:26:45;1.95;;;1.23;;
22160;SDS011;49035;48.812;11.762;2023-05-10T12:29:19;1.58;;;0.90;;
22160;SDS011;49035;48.812;11.762;2023-05-10T12:31:49;4.78;;;1.10;;
22160;SDS011;49035;48.812;11.762;2023-05-10T12:36:55;1.10;;;1.00;;
22160;SDS011;49035;48.812;11.762;2023-05-10T12:39:21;0.65;;;0.65;;
22160;SDS011;49035;48.812;11.762;2023-05-10T12:41:47;0.70;;;0.70;;
22160;SDS011;49035;48.812;11.762;2023-05-10T12:44:13;1.05;;;0.80;;
22160;SDS011;49035;48.812;11.762;2023-05-10T12:46:38;0.98;;;0.63;;
22160;SDS011;49035;48.812;11.762;2023-05-10T12:49:04;1.02;;;0.80;;
22160;SDS011;49035;48.812;11.762;2023-05-10T12:51:29;1.85;;;1.00;;
22160;SDS011;49035;48.812;11.762;2023-05-10T12:53:56;1.40;;;0.82;;
22160;SDS011;49035;48.812;11.762;2023-05-10T12:56:21;4.50;;;1.00;;
22160;SDS011;49035;48.812;11.762;2023-05-10T12:58:47;1.00;;;0.90;;
22160;SDS011;49035;48.812;11.762;2023-05-10T13:01:13;1.38;;;1.00;;
22160;SDS011;49035;48.812;11.762;2023-05-10T13:03:39;1.40;;;1.00;;
22160;SDS011;49035;48.812;11.762;2023-05-10T13:06:05;3.47;;;1.48;;
22160;SDS011;49035;48.812;11.762;2023-05-10T13:08:31;2.17;;;1.20;;
22160;SDS011;49035;48.812;11.762;2023-05-10T13:10:58;3.00;;;1.45;;
22160;SDS011;49035;48.812;11.762;2023-05-10T13:13:27;1.30;;;1.17;;
22160;SDS011;49035;48.812;11.762;2023-05-10T13:15:53;3.00;;;1.00;;
22160;SDS011;49035;48.812;11.762;2023-05-10T13:18:19;1.58;;;1.42;;
22160;SDS011;49035;48.812;11.762;2023-05-10T13:20:44;2.47;;;1.17;;
22160;SDS011;49035;48.812;11.762;2023-05-10T13:23:10;2.78;;;1.30;;
22160;SDS011;49035;48.812;11.762;2023-05-10T13:25:35;2.08;;;1.20;;
22160;SDS011;49035;48.812;11.762;2023-05-10T13:28:01;1.17;;;1.08;;
22160;SDS011;49035;48.812;11.762;2023-05-10T13:30:27;1.20;;;1.10;;
22160;SDS011;49035;48.812;11.762;2023-05-10T13:32:56;2.30;;;1.30;;
22160;SDS011;49035;48.812;11.762;2023-05-10T13:35:22;2.78;;;1.20;;
22160;SDS011;49035;48.812;11.762;2023-05-10T13:37:48;1.67;;;1.20;;
22160;SDS011;49035;48.812;11.762;2023-05-10T13:40:13;2.72;;;1.30;;
22160;SDS011;49035;48.812;11.762;2023-05-10T13:42:40;0.90;;;0.90;;
22160;SDS011;49035;48.812;11.762;2023-05-10T13:45:06;1.00;;;0.90;;
22160;SDS011;49035;48.812;11.762;2023-05-10T13:47:32;1.35;;;1.20;;
22160;SDS011;49035;48.812;11.762;2023-05-10T13:49:58;2.13;;;1.20;;
22160;SDS011;49035;48.812;11.762;2023-05-10T13:52:23;2.33;;;1.10;;
22160;SDS011;49035;48.812;11.762;2023-05-10T13:54:49;2.95;;;1.08;;
22160;SDS011;49035;48.812;11.762;2023-05-10T13:57:16;2.17;;;1.15;;
22160;SDS011;49035;48.812;11.762;2023-05-10T13:59:42;1.42;;;1.33;;
22160;SDS011;49035;48.812;11.762;2023-05-10T14:02:08;1.55;;;1.30;;
22160;SDS011;49035;48.812;11.762;2023-05-10T14:04:33;2.78;;;1.42;;
22160;SDS011;49035;48.812;11.762;2023-05-10T14:07:00;1.50;;;1.40;;
22160;SDS011;49035;48.812;11.762;2023-05-10T14:09:25;4.32;;;1.77;;
22160;SDS011;49035;48.812;11.762;2023-05-10T14:11:51;1.25;;;1.15;;
22160;SDS011;49035;48.812;11.762;2023-05-10T14:14:17;1.73;;;1.40;;
22160;SDS011;49035;48.812;11.762;2023-05-10T14:16:43;4.18;;;1.23;;
22160;SDS011;49035;48.812;11.762;2023-05-10T14:19:09;3.50;;;1.35;;
22160;SDS011;49035;48.812;11.762;2023-05-10T14:21:35;3.17;;;1.63;;
22160;SDS011;49035;48.812;11.762;2023-05-10T14:24:01;1.70;;;1.35;;
22160;SDS011;49035;48.812;11.762;2023-05-10T14:26:27;2.05;;;1.30;;
22160;SDS011;49035;48.812;11.762;2023-05-10T14:28:52;2.72;;;1.35;;
22160;SDS011;49035;48.812;11.762;2023-05-10T14:31:18;1.30;;;1.20;;
22160;SDS011;49035;48.812;11.762;2023-05-10T14:33:45;3.03;;;1.25;;
22160;SDS011;49035;48.812;11.762;2023-05-10T14:36:11;1.63;;;1.10;;
22160;SDS011;49035;48.812;11.762;2023-05-10T14:38:37;1.75;;;1.10;;
22160;SDS011;49035;48.812;11.762;2023-05-10T14:41:03;1.85;;;1.05;;
22160;SDS011;49035;48.812;11.762;2023-05-10T14:43:28;1.40;;;1.30;;
22160;SDS011;49035;48.812;11.762;2023-05-10T14:45:55;2.38;;;1.70;;
22160;SDS011;49035;48.812;11.762;2023-05-10T14:48:20;2.92;;;1.33;;
22160;SDS011;49035;48.812;11.762;2023-05-10T14:50:46;2.58;;;1.27;;
22160;SDS011;49035;48.812;11.762;2023-05-10T14:53:12;2.45;;;1.30;;
22160;SDS011;49035;48.812;11.762;2023-05-10T14:55:37;2.08;;;1.50;;
22160;SDS011;49035;48.812;11.762;2023-05-10T14:58:03;1.83;;;1.45;;
22160;SDS011;49035;48.812;11.762;2023-05-10T15:00:29;2.75;;;2.38;;
22160;SDS011;49035;48.812;11.762;2023-05-10T15:02:55;1.40;;;1.30;;
22160;SDS011;49035;48.812;11.762;2023-05-10T15:05:21;5.07;;;1.90;;
22160;SDS011;49035;48.812;11.762;2023-05-10T15:07:47;6.53;;;2.15;;
22160;SDS011;49035;48.812;11.762;2023-05-10T15:10:12;2.03;;;1.67;;
22160;SDS011;49035;48.812;11.762;2023-05-10T15:12:40;2.05;;;1.85;;
22160;SDS011;49035;48.812;11.762;2023-05-10T15:15:06;1.83;;;1.63;;
22160;SDS011;49035;48.812;11.762;2023-05-10T15:17:32;2.72;;;2.05;;